Time;durP1;ratioP1;P1;durP2;ratioP2;P2;SDS_P1;SDS_P2;PMS_P1;PMS_P2;Temp;Humidity;BMP_temperature;BMP_pressure;BME280_temperature;BME280_humidity;BME280_pressure;Samples;Min_cycle;Max_cycle;Signal;HPM_P1;HPM_P2
2023/11/06 00:01:50;;;;;;;5.13;2.30;;;;;;;14.55;56.77;97322.63;6949355;28;20202;-83
2023/11/06 00:05:11;;;;;;;3.83;2.37;;;;;;;14.23;57.32;97321.97;6973937;28;20735;-83
2023/11/06 00:08:33;;;;;;;3.20;2.10;;;;;;;14.38;57.59;97332.84;6973620;28;20237;-83
2023/11/06 00:11:54;;;;;;;4.23;2.60;;;;;;;14.81;56.04;97327.88;6973956;28;20297;-83
2023/11/06 00:15:16;;;;;;;3.50;2.37;;;;;;;14.73;56.62;97333.81;6962795;28;20649;-83
2023/11/06 00:18:39;;;;;;;2.70;1.97;;;;;;;14.29;56.70;97282.94;6947137;28;20256;-83
2023/11/06 00:22:01;;;;;;;2.43;2.13;;;;;;;14.48;57.00;97322.06;6957131;28;20284;-83
2023/11/06 00:25:22;;;;;;;2.13;1.80;;;;;;;14.72;56.54;97321.34;6967765;28;20199;-83
2023/11/06 00:28:44;;;;;;;2.27;2.07;;;;;;;14.64;56.61;97323.75;6944314;28;20235;-83
2023/11/06 00:32:06;;;;;;;3.23;1.80;;;;;;;14.35;56.90;97304.41;6945555;28;20274;-83
2023/11/06 00:35:29;;;;;;;1.90;1.70;;;;;;;13.88;59.04;97338.00;6944956;28;20333;-84
2023/11/06 00:38:51;;;;;;;3.30;1.70;;;;;;;13.79;59.41;97329.53;6972152;28;20360;-84
2023/11/06 00:42:12;;;;;;;4.30;2.13;;;;;;;14.13;58.77;97354.41;6954625;28;20204;-84
2023/11/06 00:45:34;;;;;;;3.17;2.17;;;;;;;14.04;59.17;97354.06;6951521;28;20663;-83
2023/11/06 00:48:55;;;;;;;5.03;2.10;;;;;;;13.91;59.65;97359.13;6944371;28;20261;-84
2023/11/06 00:52:19;;;;;;;2.50;1.97;;;;;;;13.91;59.04;97341.00;6945048;28;20275;-84
2023/11/06 00:55:41;;;;;;;1.87;1.77;;;;;;;14.10;59.04;97353.03;6945504;28;20203;-84
2023/11/06 00:59:03;;;;;;;5.17;1.90;;;;;;;14.28;58.61;97346.38;6944037;28;20219;-83
2023/11/06 01:02:25;;;;;;;2.10;1.87;;;;;;;14.25;58.68;97355.03;6945713;28;20694;-83
2023/11/06 01:05:46;;;;;;;3.00;1.70;;;;;;;14.06;59.03;97365.47;6931209;28;20558;-83
2023/11/06 01:09:09;;;;;;;1.73;1.50;;;;;;;13.99;59.14;97355.94;6970638;28;20321;-84
2023/11/06 01:12:31;;;;;;;1.83;1.70;;;;;;;13.97;59.03;97366.22;6964011;28;20294;-83
2023/11/06 01:15:52;;;;;;;3.33;2.07;;;;;;;14.09;58.77;97375.00;6971951;28;20206;-83
2023/11/06 01:19:14;;;;;;;4.40;2.10;;;;;;;13.75;59.22;97368.25;6973986;28;20293;-83
2023/11/06 01:22:35;;;;;;;3.07;2.00;;;;;;;13.51;59.99;97361.56;6960901;28;20285;-83
2023/11/06 01:25:58;;;;;;;5.77;2.10;;;;;;;13.92;58.73;97363.50;6945887;28;20211;-84
2023/11/06 01:29:20;;;;;;;2.13;2.00;;;;;;;13.68;58.82;97354.13;6951624;28;20287;-84
2023/11/06 01:32:43;;;;;;;5.37;2.30;;;;;;;13.56;59.21;97364.28;6942009;28;20588;-84
2023/11/06 01:36:05;;;;;;;2.93;1.90;;;;;;;13.22;59.64;97377.25;6943920;28;20238;-84
2023/11/06 01:39:27;;;;;;;2.77;2.20;;;;;;;13.58;58.36;97381.91;6943671;28;20230;-84
2023/11/06 01:42:51;;;;;;;3.37;2.37;;;;;;;13.81;58.16;97380.75;6944099;28;20210;-83
2023/11/06 01:46:13;;;;;;;3.67;2.17;;;;;;;13.87;57.92;97393.25;6941748;28;20215;-84
2023/11/06 01:49:34;;;;;;;2.07;1.87;;;;;;;13.38;59.03;97391.75;6971603;28;20700;-84
2023/11/06 01:52:56;;;;;;;4.07;2.27;;;;;;;13.63;58.20;97400.09;6971219;28;20253;-83
2023/11/06 01:56:18;;;;;;;5.60;2.27;;;;;;;13.44;59.02;97407.78;6971282;28;20304;-84
2023/11/06 01:59:41;;;;;;;7.23;2.27;;;;;;;13.95;57.52;97395.47;6971770;28;20799;-84
2023/11/06 02:03:03;;;;;;;6.33;2.27;;;;;;;14.03;56.92;97386.84;6958285;28;20230;-84
2023/11/06 02:06:30;;;;;;;2.93;2.00;;;;;;;13.91;57.36;97395.19;6972230;28;20305;-83
2023/11/06 02:09:52;;;;;;;2.57;1.70;;;;;;;14.20;56.06;97390.25;6971466;28;20226;-83
2023/11/06 02:13:13;;;;;;;4.63;1.90;;;;;;;13.75;57.84;97406.97;6970968;28;20299;-83
2023/11/06 02:16:36;;;;;;;5.87;2.37;;;;;;;14.09;56.54;97421.06;6964908;28;20274;-83
2023/11/06 02:19:59;;;;;;;2.03;1.87;;;;;;;14.19;56.19;97423.84;6942443;28;20808;-84
2023/11/06 02:23:23;;;;;;;5.53;1.80;;;;;;;14.09;56.54;97438.13;6968278;28;20202;-84
2023/11/06 02:26:53;;;;;;;5.77;3.40;;;;;;;14.27;55.68;97439.66;6970471;28;20210;-83
2023/11/06 02:30:14;;;;;;;3.70;1.90;;;;;;;14.18;56.33;97433.84;6974890;28;20595;-83
2023/11/06 02:33:36;;;;;;;4.70;1.90;;;;;;;14.17;56.07;97440.34;6976397;28;20244;-83
2023/11/06 02:36:57;;;;;;;3.10;2.20;;;;;;;14.19;55.85;97443.66;6959810;28;20361;-84
2023/11/06 02:40:20;;;;;;;2.03;1.83;;;;;;;14.30;55.74;97456.19;6950785;28;20273;-83
2023/11/06 02:43:42;;;;;;;4.30;1.90;;;;;;;14.46;54.95;97443.56;6950180;28;20350;-83
2023/11/06 02:47:04;;;;;;;3.60;1.97;;;;;;;13.74;56.93;97456.00;6949163;28;20832;-84
2023/11/06 02:50:26;;;;;;;2.00;1.80;;;;;;;13.72;57.15;97450.00;6947801;28;20230;-83
2023/11/06 02:53:48;;;;;;;1.80;1.70;;;;;;;13.93;56.29;97459.94;6946982;28;20214;-84
2023/11/06 02:57:11;;;;;;;2.70;1.80;;;;;;;13.70;56.83;97455.66;6949026;28;20345;-84
2023/11/06 03:00:33;;;;;;;3.40;1.87;;;;;;;14.01;56.20;97451.34;6950307;28;20223;-84
2023/11/06 03:03:55;;;;;;;5.50;1.70;;;;;;;13.97;56.43;97458.34;6951312;28;20277;-83
2023/11/06 03:07:16;;;;;;;2.73;2.13;;;;;;;14.01;56.23;97454.88;6952458;28;20233;-84
2023/11/06 03:10:38;;;;;;;2.53;2.27;;;;;;;13.93;56.55;97459.94;6958372;28;20289;-83
2023/11/06 03:14:01;;;;;;;5.83;3.67;;;;;;;13.64;56.94;97470.25;6963178;28;20212;-82
2023/11/06 03:17:22;;;;;;;6.80;4.20;;;;;;;13.51;57.66;97481.50;6976399;28;20695;-83
2023/11/06 03:20:44;;;;;;;3.53;1.90;;;;;;;13.48;57.60;97475.78;6974429;28;20274;-84
2023/11/06 03:24:07;;;;;;;3.13;1.90;;;;;;;13.76;56.71;97473.59;6973652;28;20267;-81
2023/11/06 03:27:29;;;;;;;5.27;1.70;;;;;;;13.99;56.23;97486.81;6969959;28;20313;-84
2023/11/06 03:30:52;;;;;;;2.53;1.53;;;;;;;13.86;55.94;97491.88;6955416;28;20290;-83
2023/11/06 03:34:13;;;;;;;3.13;1.80;;;;;;;13.61;57.21;97515.97;6974244;28;20489;-84
2023/11/06 03:37:35;;;;;;;2.93;2.10;;;;;;;13.54;57.18;97512.66;6968545;28;20198;-82
2023/11/06 03:40:56;;;;;;;3.77;2.10;;;;;;;13.78;56.35;97503.16;6944512;28;20249;-83
2023/11/06 03:44:19;;;;;;;2.27;1.80;;;;;;;13.33;57.89;97549.50;6946257;28;20684;-83
2023/11/06 03:47:42;;;;;;;3.60;1.90;;;;;;;13.63;57.04;97543.63;6945679;28;20236;-83
2023/11/06 03:51:04;;;;;;;2.27;1.80;;;;;;;13.53;56.88;97548.94;6947167;28;20294;-84
2023/11/06 03:54:27;;;;;;;4.77;1.70;;;;;;;13.41;57.74;97548.25;6942854;28;20285;-83
2023/11/06 03:57:48;;;;;;;3.37;2.03;;;;;;;13.67;57.14;97555.56;6961756;28;20304;-83
2023/11/06 04:01:10;;;;;;;5.50;1.87;;;;;;;13.71;57.07;97554.84;6953614;28;20302;-84
2023/11/06 04:04:32;;;;;;;2.67;1.67;;;;;;;13.81;56.91;97568.47;6944212;28;20346;-83
2023/11/06 04:07:54;;;;;;;1.50;1.40;;;;;;;13.70;56.61;97572.13;6946289;28;20637;-83
2023/11/06 04:11:15;;;;;;;4.17;1.63;;;;;;;13.49;57.60;97580.28;6943833;28;20612;-83
2023/11/06 04:14:39;;;;;;;1.87;1.60;;;;;;;13.91;56.66;97579.41;6945585;28;20301;-83
2023/11/06 04:18:00;;;;;;;3.53;1.80;;;;;;;14.22;55.53;97575.94;6945492;28;20222;-85
2023/11/06 04:21:23;;;;;;;3.00;1.83;;;;;;;14.15;55.70;97580.72;6937036;28;20291;-83
2023/11/06 04:24:44;;;;;;;5.20;1.93;;;;;;;13.87;56.72;97594.53;6965896;28;20295;-83
2023/11/06 04:28:06;;;;;;;1.80;1.43;;;;;;;13.64;57.55;97588.59;6966261;28;20711;-84
2023/11/06 04:31:28;;;;;;;3.20;1.77;;;;;;;13.65;57.46;97595.66;6945814;28;20268;-83
2023/11/06 04:34:49;;;;;;;1.87;1.77;;;;;;;13.79;56.96;97599.59;6944976;28;20268;-83
2023/11/06 04:38:12;;;;;;;3.70;1.90;;;;;;;14.27;55.92;97594.16;6943774;28;20230;-83
2023/11/06 04:41:34;;;;;;;3.30;2.10;;;;;;;14.86;54.33;97595.72;6946328;28;20216;-83
2023/11/06 04:44:55;;;;;;;2.40;2.10;;;;;;;14.19;55.10;97562.91;6944765;28;20815;-83
2023/11/06 04:48:17;;;;;;;3.43;1.80;;;;;;;14.37;54.84;97581.50;6944104;28;20322;-83
2023/11/06 04:51:39;;;;;;;1.53;1.43;;;;;;;14.63;54.09;97604.22;6942339;28;20577;-84
2023/11/06 04:55:02;;;;;;;1.90;1.70;;;;;;;14.25;54.96;97613.41;6945315;28;20216;-82
2023/11/06 04:58:25;;;;;;;4.23;2.40;;;;;;;14.48;54.37;97614.94;6946317;28;20223;-84
2023/11/06 05:01:47;;;;;;;2.10;1.90;;;;;;;14.50;54.35;97610.91;6947232;28;20253;-84
2023/11/06 05:05:09;;;;;;;2.10;1.90;;;;;;;14.93;53.22;97616.09;6967940;28;20199;-83
2023/11/06 05:08:33;;;;;;;4.00;2.10;;;;;;;14.75;53.38;97629.28;6966345;28;20713;-83
2023/11/06 05:11:56;;;;;;;1.90;1.80;;;;;;;14.50;54.11;97627.16;6960159;28;20313;-83
2023/11/06 05:15:18;;;;;;;2.00;1.90;;;;;;;14.17;54.96;97627.34;6937141;28;20226;-84
2023/11/06 05:18:39;;;;;;;4.33;1.87;;;;;;;14.10;55.51;97632.19;6945518;28;20267;-84
2023/11/06 05:22:01;;;;;;;2.83;1.70;;;;;;;14.13;55.30;97641.69;6952494;28;20240;-83
2023/11/06 05:25:22;;;;;;;3.43;1.70;;;;;;;13.47;56.24;97587.84;6957875;28;20294;-83
2023/11/06 05:28:45;;;;;;;3.00;1.70;;;;;;;13.48;56.49;97636.34;6931451;28;20318;-85
2023/11/06 05:32:07;;;;;;;1.77;1.43;;;;;;;13.61;56.39;97638.66;6928259;28;20205;-84
2023/11/06 05:35:29;;;;;;;4.67;1.77;;;;;;;14.03;55.58;97647.00;6917901;28;20338;-83
2023/11/06 05:38:50;;;;;;;2.50;1.40;;;;;;;14.26;55.08;97661.13;6943946;28;20428;-85
2023/11/06 05:42:12;;;;;;;4.13;1.60;;;;;;;14.49;54.43;97654.53;6976035;28;20218;-84
2023/11/06 05:45:35;;;;;;;2.23;1.90;;;;;;;13.91;54.82;97608.38;6949752;28;20685;-84
2023/11/06 05:48:56;;;;;;;5.60;2.00;;;;;;;14.74;53.68;97655.59;6952980;28;20254;-86
2023/11/06 05:52:18;;;;;;;3.87;1.97;;;;;;;13.67;54.38;97578.06;6970890;28;20207;-87
2023/11/06 05:55:40;;;;;;;5.27;3.50;;;;;;;14.21;54.79;97681.94;6949455;28;20210;-83
2023/11/06 05:59:03;;;;;;;3.07;1.83;;;;;;;14.38;54.54;97685.34;6962239;28;20230;-84
2023/11/06 06:02:27;;;;;;;2.10;1.90;;;;;;;14.07;53.80;97599.34;6946535;28;20206;-84
2023/11/06 06:05:48;;;;;;;5.60;2.03;;;;;;;14.34;54.28;97679.63;6940400;28;20199;-84
2023/11/06 06:09:10;;;;;;;2.57;1.70;;;;;;;14.48;53.74;97672.72;6953516;28;20258;-85
2023/11/06 06:12:33;;;;;;;2.10;1.80;;;;;;;14.50;53.76;97703.09;6951491;28;20282;-85
2023/11/06 06:15:54;;;;;;;2.43;1.53;;;;;;;14.19;53.71;97632.56;6953782;28;20211;-85
2023/11/06 06:19:18;;;;;;;3.83;1.60;;;;;;;14.48;53.67;97699.84;6951268;28;20236;-85
2023/11/06 06:22:39;;;;;;;2.27;1.70;;;;;;;14.40;53.58;97715.75;6949635;28;20345;-85
2023/11/06 06:26:01;;;;;;;1.57;1.47;;;;;;;14.59;53.48;97727.88;6952824;28;20231;-84
2023/11/06 06:29:23;;;;;;;2.63;2.17;;;;;;;14.49;54.00;97725.06;6955278;28;20231;-84
2023/11/06 06:32:44;;;;;;;3.37;2.60;;;;;;;14.41;53.89;97731.78;6960787;28;20299;-84
2023/11/06 06:36:11;;;;;;;2.60;2.40;;;;;;;14.46;54.24;97748.09;6951652;28;20230;-83
2023/11/06 06:39:32;;;;;;;6.03;4.10;;;;;;;14.48;54.09;97745.94;6948562;28;20238;-84
2023/11/06 06:42:54;;;;;;;5.67;4.00;;;;;;;14.43;54.41;97751.31;6948419;28;20268;-84
2023/11/06 06:46:15;;;;;;;4.50;2.47;;;;;;;14.30;54.37;97753.59;6956532;28;20292;-84
2023/11/06 06:49:40;;;;;;;3.20;2.00;;;;;;;14.01;54.94;97749.41;6949892;28;20327;-83
2023/11/06 06:53:03;;;;;;;2.60;1.70;;;;;;;13.82;55.21;97748.09;6955806;28;20208;-85
2023/11/06 06:56:25;;;;;;;2.40;2.20;;;;;;;14.11;54.82;97760.41;6947832;28;20241;-84
2023/11/06 06:59:46;;;;;;;2.97;1.93;;;;;;;14.47;53.66;97760.59;6947745;28;20314;-83
2023/11/06 07:03:08;;;;;;;1.97;1.60;;;;;;;14.11;54.39;97763.09;6947089;28;20257;-84
2023/11/06 07:06:29;;;;;;;3.87;1.80;;;;;;;14.44;54.01;97765.69;6954385;28;20203;-83
2023/11/06 07:09:53;;;;;;;1.80;1.70;;;;;;;14.46;53.73;97774.41;6947399;28;20741;-84
2023/11/06 07:13:14;;;;;;;1.90;1.80;;;;;;;14.59;53.89;97779.41;6946787;28;20685;-83
2023/11/06 07:16:36;;;;;;;3.33;2.30;;;;;;;14.13;54.59;97759.06;6945729;28;20293;-84
2023/11/06 07:19:57;;;;;;;4.23;1.80;;;;;;;14.31;54.97;97785.88;6944686;28;20274;-86
2023/11/06 07:23:19;;;;;;;2.53;2.33;;;;;;;14.42;54.73;97782.22;6946368;28;20226;-84
2023/11/06 07:26:42;;;;;;;4.07;2.00;;;;;;;14.25;54.95;97781.47;6953361;28;20621;-86
2023/11/06 07:30:05;;;;;;;3.67;2.10;;;;;;;14.69;54.37;97793.09;6946732;28;20335;-85
2023/11/06 07:33:26;;;;;;;2.20;1.70;;;;;;;15.04;53.36;97796.16;6936252;28;20271;-85
2023/11/06 07:36:48;;;;;;;2.03;1.67;;;;;;;14.90;53.76;97787.63;6952830;28;20806;-84
2023/11/06 07:40:11;;;;;;;2.80;2.00;;;;;;;14.79;54.18;97795.91;6946295;28;20280;-84
2023/11/06 07:43:34;;;;;;;2.00;1.90;;;;;;;15.18;53.29;97800.91;6955559;28;20206;-85
2023/11/06 07:46:55;;;;;;;3.70;2.13;;;;;;;15.43;52.42;97801.13;6942925;28;20204;-84
2023/11/06 07:50:18;;;;;;;3.83;1.83;;;;;;;15.46;52.14;97784.31;6946842;28;20243;-84
2023/11/06 07:53:39;;;;;;;3.20;2.00;;;;;;;15.19;53.06;97804.44;6946750;28;20608;-85
2023/11/06 07:57:16;;;;;;;1.70;1.60;;;;;;;15.25;52.69;97771.63;6948476;28;20237;-84
2023/11/06 08:00:38;;;;;;;3.67;1.70;;;;;;;15.07;52.86;97779.34;6942843;28;20230;-85
2023/11/06 08:04:00;;;;;;;3.60;1.60;;;;;;;14.99;53.74;97775.19;6937565;28;20289;-84
2023/11/06 08:07:22;;;;;;;1.60;1.50;;;;;;;15.00;53.76;97809.44;6942064;28;20745;-84
2023/11/06 08:10:43;;;;;;;3.30;1.97;;;;;;;16.15;51.72;97809.50;6937713;28;20225;-85
2023/11/06 08:14:05;;;;;;;1.77;1.50;;;;;;;18.94;44.15;97814.09;6931195;28;20217;-85
2023/11/06 08:17:28;;;;;;;2.57;1.53;;;;;;;22.16;37.32;97802.50;6939817;28;20306;-84
2023/11/06 08:20:49;;;;;;;2.80;1.50;;;;;;;23.04;34.27;97803.72;6932789;28;20268;-85
2023/11/06 08:24:11;;;;;;;3.83;2.20;;;;;;;23.69;33.85;97809.63;6939140;28;20257;-85
2023/11/06 08:27:33;;;;;;;3.17;1.63;;;;;;;23.86;32.96;97807.81;6939434;28;20302;-85
2023/11/06 08:30:55;;;;;;;2.63;1.67;;;;;;;24.51;32.44;97802.50;6939678;28;20231;-85
2023/11/06 08:34:20;;;;;;;2.70;1.57;;;;;;;23.50;33.22;97818.09;6938931;28;20268;-85
2023/11/06 08:37:42;;;;;;;3.13;1.60;;;;;;;22.70;34.65;97786.06;6935592;28;20206;-85
2023/11/06 08:41:07;;;;;;;3.30;2.07;;;;;;;23.94;32.71;97823.59;6944730;28;20832;-85
2023/11/06 08:44:29;;;;;;;2.87;2.30;;;;;;;24.21;31.42;97826.22;6939810;28;20214;-86
2023/11/06 08:47:51;;;;;;;2.97;1.63;;;;;;;21.33;36.97;97844.81;6941588;28;20235;-85
2023/11/06 08:51:14;;;;;;;2.20;1.60;;;;;;;20.91;38.38;97833.88;6931835;28;20314;-85
2023/11/06 08:54:37;;;;;;;2.27;1.40;;;;;;;20.31;39.77;97842.78;6926567;28;20298;-85
2023/11/06 08:58:00;;;;;;;1.63;1.50;;;;;;;19.51;40.39;97825.19;6936235;28;20752;-85
2023/11/06 09:01:21;;;;;;;2.60;1.70;;;;;;;18.50;42.86;97785.94;6940907;28;20337;-86
2023/11/06 09:04:45;;;;;;;2.90;1.77;;;;;;;19.05;43.13;97823.03;6942881;28;20704;-86
2023/11/06 09:08:09;;;;;;;2.33;2.13;;;;;;;18.73;43.76;97845.34;6941870;28;20258;-86
2023/11/06 09:11:31;;;;;;;2.03;1.40;;;;;;;18.61;44.08;97838.56;6941582;28;20365;-85
2023/11/06 09:14:52;;;;;;;1.67;1.57;;;;;;;18.31;44.38;97841.38;6941135;28;20631;-86
2023/11/06 09:18:16;;;;;;;4.10;1.40;;;;;;;17.93;45.46;97872.00;6941771;28;20772;-85
2023/11/06 09:21:37;;;;;;;4.10;1.77;;;;;;;18.15;45.91;97872.50;6942608;28;20214;-86
2023/11/06 09:25:01;;;;;;;4.20;1.70;;;;;;;18.25;44.93;97861.56;6941142;28;20380;-85
2023/11/06 09:28:22;;;;;;;2.67;1.70;;;;;;;17.98;45.84;97872.00;6938717;28;20243;-85
2023/11/06 09:31:45;;;;;;;3.00;1.70;;;;;;;17.73;46.36;97877.47;6952485;28;20242;-85
2023/11/06 09:35:07;;;;;;;4.23;1.90;;;;;;;18.18;45.43;97880.16;6954178;28;20211;-85
2023/11/06 09:38:29;;;;;;;2.67;1.80;;;;;;;18.76;44.74;97882.19;6948765;28;20268;-85
2023/11/06 09:41:53;;;;;;;3.97;1.63;;;;;;;17.97;45.13;97873.91;6946759;28;20244;-85
2023/11/06 09:45:15;;;;;;;2.43;1.60;;;;;;;17.71;45.31;97887.81;6946415;28;20213;-86
2023/11/06 09:48:38;;;;;;;3.30;1.77;;;;;;;18.77;44.10;97898.31;6946521;28;20283;-85
2023/11/06 09:52:03;;;;;;;1.70;1.60;;;;;;;18.31;44.02;97888.63;6924034;28;20283;-86
2023/11/06 09:55:26;;;;;;;2.37;1.40;;;;;;;18.82;43.95;97895.53;6946265;28;20207;-86
2023/11/06 09:58:51;;;;;;;3.33;1.60;;;;;;;18.44;43.19;97885.31;6949812;28;20218;-85
2023/11/06 10:02:12;;;;;;;2.00;1.47;;;;;;;18.98;42.96;97890.84;6950673;28;20203;-86
2023/11/06 10:05:34;;;;;;;2.70;1.50;;;;;;;18.92;42.43;97884.56;6939840;28;20346;-85
2023/11/06 10:08:55;;;;;;;1.87;1.50;;;;;;;18.91;42.87;97888.41;6940738;28;20324;-85
2023/11/06 10:12:18;;;;;;;3.83;1.63;;;;;;;20.00;40.35;97882.50;6945391;28;20718;-85
2023/11/06 10:15:40;;;;;;;1.60;1.40;;;;;;;19.64;41.86;97894.84;6951682;28;20218;-85
2023/11/06 10:19:10;;;;;;;1.83;1.53;;;;;;;19.65;41.25;97889.09;6946368;28;20292;-85
2023/11/06 10:22:32;;;;;;;3.80;1.80;;;;;;;19.99;41.21;97886.34;6940074;28;20222;-86
2023/11/06 10:25:54;;;;;;;2.00;1.23;;;;;;;19.63;41.49;97894.00;6941488;28;20264;-85
2023/11/06 10:29:16;;;;;;;1.70;1.60;;;;;;;19.90;41.06;97888.88;6960209;28;20317;-85
2023/11/06 10:32:39;;;;;;;2.53;1.50;;;;;;;19.62;40.96;97883.34;6953402;28;20209;-85
2023/11/06 10:36:01;;;;;;;2.30;1.40;;;;;;;19.49;42.00;97867.59;6958244;28;20332;-86
2023/11/06 10:39:22;;;;;;;1.13;1.03;;;;;;;20.00;40.57;97874.28;6973109;28;20266;-87
2023/11/06 10:42:45;;;;;;;1.73;1.23;;;;;;;19.98;39.80;97841.75;6958905;28;20269;-86
2023/11/06 10:46:09;;;;;;;2.23;1.20;;;;;;;18.81;41.75;97869.31;6941520;28;20242;-87
2023/11/06 10:49:35;;;;;;;5.97;1.70;;;;;;;19.35;41.08;97867.41;6937237;28;20235;-87
2023/11/06 10:52:59;;;;;;;1.47;1.13;;;;;;;18.87;41.00;97853.75;6949894;28;20249;-87
2023/11/06 10:56:21;;;;;;;3.67;2.73;;;;;;;19.36;41.81;97851.84;6960559;28;20550;-86
2023/11/06 10:59:43;;;;;;;6.73;2.63;;;;;;;19.30;41.15;97856.53;6956567;28;20235;-85
2023/11/06 11:03:05;;;;;;;1.20;1.07;;;;;;;19.48;41.43;97866.78;6952369;28;20203;-88
2023/11/06 11:06:29;;;;;;;2.50;1.43;;;;;;;18.92;41.36;97859.19;6950677;28;20676;-87
2023/11/06 11:09:51;;;;;;;2.23;1.03;;;;;;;18.62;41.92;97864.75;6951707;28;20271;-86
2023/11/06 11:13:15;;;;;;;1.53;1.27;;;;;;;18.90;40.78;97837.59;6967626;28;20245;-87
2023/11/06 11:16:37;;;;;;;2.07;1.33;;;;;;;18.26;41.97;97834.03;6972965;28;20210;-83
2023/11/06 11:20:03;;;;;;;1.40;1.30;;;;;;;18.33;42.36;97870.03;6959447;28;20592;-86
2023/11/06 11:23:42;;;;;;;1.53;1.10;;;;;;;18.51;42.40;97880.38;6948852;28;20209;-86
2023/11/06 11:27:08;;;;;;;0.90;0.90;;;;;;;18.04;42.53;97870.91;6962108;28;20206;-86
2023/11/06 11:30:29;;;;;;;1.30;1.17;;;;;;;18.60;41.62;97883.34;6953114;28;20226;-87
2023/11/06 11:33:56;;;;;;;2.23;1.20;;;;;;;18.02;41.86;97875.81;6952444;28;20608;-87
2023/11/06 11:37:36;;;;;;;1.47;1.37;;;;;;;17.90;42.84;97869.81;6968551;28;20842;-87
2023/11/06 11:41:15;;;;;;;4.30;1.70;;;;;;;18.42;41.96;97879.31;6935399;28;20294;-86
2023/11/06 11:44:38;;;;;;;1.90;1.60;;;;;;;18.54;41.87;97871.63;6942570;28;20848;-87
2023/11/06 11:47:59;;;;;;;3.10;1.43;;;;;;;19.01;42.02;97874.72;6943378;28;20234;-87
2023/11/06 11:51:56;;;;;;;1.23;1.20;;;;;;;19.11;41.63;97876.56;6949136;28;20262;-87
2023/11/06 11:55:31;;;;;;;1.37;1.27;;;;;;;19.75;40.24;97869.03;6943997;28;20242;-87
2023/11/06 11:58:54;;;;;;;2.00;1.60;;;;;;;18.95;40.96;97875.00;6944471;28;20689;-87
2023/11/06 12:02:34;;;;;;;2.13;1.30;;;;;;;18.88;41.85;97872.56;6939564;28;20757;-87
2023/11/06 12:05:57;;;;;;;2.93;1.60;;;;;;;19.07;41.58;97862.66;6944333;28;20233;-87
2023/11/06 12:09:18;;;;;;;1.30;1.20;;;;;;;19.08;41.53;97863.44;6950013;28;20261;-84
2023/11/06 12:12:41;;;;;;;1.83;1.70;;;;;;;18.65;41.62;97818.63;6961549;28;20209;-84
2023/11/06 12:16:06;;;;;;;1.53;1.23;;;;;;;18.67;42.10;97853.81;6966984;28;20301;-84
2023/11/06 12:19:27;;;;;;;2.77;2.20;;;;;;;19.43;41.07;97876.94;6944881;28;20694;-84
2023/11/06 12:22:49;;;;;;;1.27;1.07;;;;;;;19.46;40.61;97860.78;6944483;28;20198;-85
2023/11/06 12:26:13;;;;;;;2.40;1.30;;;;;;;19.11;41.28;97857.44;6948874;28;20344;-84
2023/11/06 12:29:35;;;;;;;2.13;1.10;;;;;;;18.78;41.86;97864.44;6943819;28;20238;-84
2023/11/06 12:33:09;;;;;;;1.10;1.10;;;;;;;19.20;41.17;97837.44;6952859;28;20663;-84
2023/11/06 12:36:34;;;;;;;2.60;1.33;;;;;;;18.65;42.08;97854.13;6943127;28;20289;-86
2023/11/06 12:40:14;;;;;;;1.33;1.10;;;;;;;19.10;42.08;97856.59;6961327;28;20218;-86
2023/11/06 12:43:35;;;;;;;1.00;0.90;;;;;;;18.18;42.81;97787.38;6941066;28;20212;-86
2023/11/06 12:46:57;;;;;;;1.40;1.00;;;;;;;18.49;41.84;97859.91;6957201;28;20348;-86
2023/11/06 12:50:21;;;;;;;1.80;1.30;;;;;;;18.76;41.97;97863.09;6943634;28;20381;-87
2023/11/06 12:53:46;;;;;;;1.43;1.30;;;;;;;18.52;42.11;97845.72;6943398;28;20220;-84
2023/11/06 12:57:10;;;;;;;2.13;1.50;;;;;;;18.19;42.78;97862.69;6955591;28;20207;-84
2023/11/06 13:00:32;;;;;;;1.17;1.17;;;;;;;18.06;42.93;97825.06;6960639;28;20309;-86
2023/11/06 13:03:54;;;;;;;2.00;1.20;;;;;;;18.12;43.39;97883.97;6946115;28;20248;-85
2023/11/06 13:07:17;;;;;;;2.73;1.33;;;;;;;18.55;42.67;97867.81;6953038;28;20217;-85
2023/11/06 13:10:40;;;;;;;2.63;1.30;;;;;;;18.85;41.75;97864.94;6941129;28;20730;-85
2023/11/06 13:14:01;;;;;;;0.93;0.93;;;;;;;17.55;42.86;97788.88;6951437;28;20237;-85
2023/11/06 13:17:23;;;;;;;1.00;1.00;;;;;;;17.42;43.22;97813.97;6944821;28;20206;-85
2023/11/06 13:20:47;;;;;;;1.73;1.20;;;;;;;17.63;43.56;97881.00;6960969;28;20237;-85
2023/11/06 13:24:10;;;;;;;1.00;1.00;;;;;;;17.55;43.40;97894.34;6947821;28;20231;-85
2023/11/06 13:27:32;;;;;;;0.93;0.93;;;;;;;17.24;44.30;97860.78;6943251;28;20222;-86
2023/11/06 13:30:54;;;;;;;0.80;0.80;;;;;;;17.26;44.54;97872.22;6941609;28;20324;-87
2023/11/06 13:34:16;;;;;;;1.93;1.10;;;;;;;17.66;43.11;97834.13;6941529;28;20241;-87
2023/11/06 13:37:37;;;;;;;4.63;1.70;;;;;;;18.14;42.58;97851.78;6936595;28;20203;-86
2023/11/06 13:41:05;;;;;;;1.17;1.07;;;;;;;17.91;43.20;97860.53;6941991;28;20293;-86
2023/11/06 13:44:27;;;;;;;0.90;0.90;;;;;;;18.65;41.98;97878.69;6941201;28;20216;-87
2023/11/06 13:47:52;;;;;;;1.93;1.33;;;;;;;17.97;43.47;97873.91;6942161;28;20340;-83
2023/11/06 13:51:16;;;;;;;1.00;1.00;;;;;;;18.21;43.16;97877.69;6941737;28;20225;-87
2023/11/06 13:54:41;;;;;;;1.17;1.07;;;;;;;18.54;42.28;97884.47;6939165;28;20246;-85
2023/11/06 13:58:05;;;;;;;1.93;1.10;;;;;;;17.72;43.36;97881.28;6937661;28;20230;-86
2023/11/06 14:01:35;;;;;;;1.53;1.07;;;;;;;17.98;42.76;97883.72;6939985;28;20545;-86
2023/11/06 14:04:58;;;;;;;0.93;0.93;;;;;;;17.69;43.62;97876.38;6937643;28;20209;-87
2023/11/06 14:08:21;;;;;;;1.20;1.17;;;;;;;17.99;43.18;97876.38;6941085;28;20258;-86
2023/11/06 14:11:43;;;;;;;0.80;0.80;;;;;;;17.53;43.60;97883.75;6949711;28;20229;-86
2023/11/06 14:15:09;;;;;;;2.90;1.00;;;;;;;17.77;43.25;97884.00;6941168;28;20272;-86
2023/11/06 14:18:31;;;;;;;3.20;1.17;;;;;;;18.07;42.62;97878.53;6941327;28;20599;-87
2023/11/06 14:21:52;;;;;;;0.93;0.83;;;;;;;18.13;42.02;97880.16;6941680;28;20231;-86
2023/11/06 14:25:14;;;;;;;2.00;1.80;;;;;;;17.70;42.02;97775.22;6943692;28;20307;-86
2023/11/06 14:28:35;;;;;;;1.30;1.10;;;;;;;18.21;41.84;97879.63;6941604;28;20275;-86
2023/11/06 14:31:58;;;;;;;1.77;1.10;;;;;;;18.31;42.04;97869.53;6940071;28;20362;-87
2023/11/06 14:35:20;;;;;;;1.10;1.10;;;;;;;17.83;42.93;97883.75;6945620;28;20213;-86
2023/11/06 14:38:42;;;;;;;3.63;1.60;;;;;;;18.49;41.17;97860.72;6945113;28;20271;-86
2023/11/06 14:42:04;;;;;;;1.10;1.07;;;;;;;17.98;42.58;97858.38;6947511;28;20214;-87
2023/11/06 14:45:25;;;;;;;1.00;1.00;;;;;;;18.03;41.77;97864.63;6942409;28;20213;-86
2023/11/06 14:48:48;;;;;;;2.60;1.63;;;;;;;18.49;41.72;97879.84;6945322;28;20664;-86
2023/11/06 14:52:10;;;;;;;1.50;1.20;;;;;;;18.16;41.67;97868.72;6941156;28;20288;-87
2023/11/06 14:55:31;;;;;;;1.30;1.30;;;;;;;18.37;41.95;97876.59;6944961;28;20317;-86
2023/11/06 14:58:53;;;;;;;1.17;1.10;;;;;;;18.16;41.98;97879.63;6944851;28;20234;-86
2023/11/06 15:02:14;;;;;;;1.10;1.00;;;;;;;18.30;41.96;97869.75;6945086;28;20217;-86
2023/11/06 15:05:37;;;;;;;1.30;1.20;;;;;;;17.82;42.54;97871.19;6944728;28;20300;-86
2023/11/06 15:08:59;;;;;;;4.07;1.60;;;;;;;18.46;41.91;97883.09;6945269;28;20260;-86
2023/11/06 15:12:20;;;;;;;1.17;1.17;;;;;;;18.06;42.74;97885.91;6945086;28;20262;-87
2023/11/06 15:15:42;;;;;;;2.20;1.10;;;;;;;18.66;41.75;97891.25;6944972;28;20361;-86
2023/11/06 15:19:03;;;;;;;1.33;1.13;;;;;;;17.72;41.82;97764.06;6944894;28;20238;-86
2023/11/06 15:22:26;;;;;;;2.87;1.40;;;;;;;18.14;42.50;97890.81;6944641;28;20214;-86
2023/11/06 15:25:48;;;;;;;1.80;1.10;;;;;;;17.94;42.03;97819.09;6944635;28;20253;-86
2023/11/06 15:29:09;;;;;;;1.30;1.20;;;;;;;18.61;41.21;97904.91;6944252;28;20280;-86
2023/11/06 15:32:31;;;;;;;2.43;1.33;;;;;;;18.13;42.13;97891.06;6944135;28;20235;-87
2023/11/06 15:35:52;;;;;;;1.00;1.00;;;;;;;17.12;43.81;97864.84;6943309;28;20289;-87
2023/11/06 15:39:30;;;;;;;2.00;1.30;;;;;;;17.66;43.20;97894.09;6958906;28;20279;-87
2023/11/06 15:42:52;;;;;;;1.10;1.10;;;;;;;17.40;44.19;97899.81;6878697;28;20338;-87
2023/11/06 15:46:13;;;;;;;1.63;1.00;;;;;;;17.99;43.06;97898.97;6884031;28;21056;-86
2023/11/06 15:49:35;;;;;;;2.47;1.20;;;;;;;18.16;42.46;97915.09;6882027;28;20321;-87
2023/11/06 15:52:58;;;;;;;2.17;1.13;;;;;;;17.35;44.28;97905.22;6873637;28;20227;-86
2023/11/06 15:56:20;;;;;;;1.00;1.00;;;;;;;17.39;44.14;97907.16;6870393;28;20212;-86